createdAt,value
2022-11-24T00:00:40.541Z,128.73
2022-11-24T00:04:40.420Z,119.8
2022-11-24T00:08:40.407Z,143.07
2022-11-24T00:12:40.874Z,139.87
2022-11-24T00:16:40.627Z,141
2022-11-24T00:20:40.467Z,142.93
2022-11-24T00:24:40.468Z,145.3
2022-11-24T00:28:40.552Z,148.23
2022-11-24T00:32:40.511Z,145.33
2022-11-24T00:36:40.572Z,156.23
2022-11-24T00:40:40.458Z,158.6
2022-11-24T00:44:40.489Z,162.87
2022-11-24T00:48:40.377Z,168.13
2022-11-24T00:52:41.018Z,174.73
2022-11-24T00:56:40.247Z,189.03
2022-11-24T01:00:40.529Z,179.27
2022-11-24T01:04:40.343Z,167.47
2022-11-24T01:08:41.111Z,175.53
2022-11-24T01:12:40.599Z,174.57
2022-11-24T01:16:40.284Z,189.17
2022-11-24T01:20:41.002Z,177.17
2022-11-24T01:24:39.913Z,192.9
2022-11-24T01:28:46.705Z,200.33
2022-11-24T01:32:40.619Z,190.83
2022-11-24T01:36:40.685Z,175.5
2022-11-24T01:40:40.564Z,168.87
2022-11-24T01:44:40.463Z,187.77
2022-11-24T01:48:40.676Z,201.63
2022-11-24T01:52:40.549Z,207.43
2022-11-24T01:56:40.591Z,192.83
2022-11-24T02:00:40.787Z,190.1
2022-11-24T02:04:40.658Z,188.63
2022-11-24T02:08:40.416Z,187.2
2022-11-24T02:12:40.727Z,201.43
2022-11-24T02:16:40.594Z,162.6
2022-11-24T02:20:40.603Z,180.27
2022-11-24T02:24:40.437Z,174.63
2022-11-24T02:28:40.520Z,177.33
2022-11-24T02:32:40.482Z,174.1
2022-11-24T02:36:41.323Z,183.27
2022-11-24T02:40:40.322Z,178.8
2022-11-24T02:44:40.186Z,145.1
2022-11-24T02:48:40.723Z,170.2
2022-11-24T02:52:41.156Z,148.23
2022-11-24T02:56:40.352Z,163.63
2022-11-24T03:00:40.576Z,164.63
2022-11-24T03:04:40.523Z,161.47
2022-11-24T03:08:40.436Z,163.83
2022-11-24T03:12:41.317Z,155.97
2022-11-24T03:16:40.605Z,170.9
2022-11-24T03:20:40.437Z,166.5
2022-11-24T03:24:40.520Z,153.13
2022-11-24T03:28:40.515Z,158.17
2022-11-24T03:32:40.539Z,148.13
2022-11-24T03:36:40.556Z,147.57
2022-11-24T03:40:40.886Z,149.93
2022-11-24T03:44:40.466Z,155.7
2022-11-24T03:48:40.330Z,147.67
2022-11-24T03:52:40.596Z,155.23
2022-11-24T03:56:40.503Z,168.63
2022-11-24T04:00:40.471Z,152.27
2022-11-24T04:04:40.534Z,149
2022-11-24T04:08:40.436Z,192.63
2022-11-24T04:12:40.445Z,161.73
2022-11-24T04:16:39.618Z,167.17
2022-11-24T04:20:40.465Z,175.17
2022-11-24T04:24:40.532Z,160.7
2022-11-24T04:28:40.505Z,164.4
2022-11-24T04:32:40.490Z,180.97
2022-11-24T04:36:40.526Z,171.4
2022-11-24T04:40:40.455Z,153.03
2022-11-24T04:44:40.508Z,171.73
2022-11-24T04:48:40.497Z,190.73
2022-11-24T04:52:40.396Z,182.97
2022-11-24T04:56:40.345Z,215.03
2022-11-24T05:00:40.515Z,223.53
2022-11-24T05:04:40.811Z,247.8
2022-11-24T05:08:40.680Z,355.17
2022-11-24T05:12:40.733Z,472.4
2022-11-24T05:16:41.229Z,472.07
2022-11-24T05:20:40.483Z,435.23
2022-11-24T05:24:40.629Z,285.2
2022-11-24T05:28:41.098Z,247.87
2022-11-24T05:32:40.653Z,211.33
2022-11-24T05:36:40.520Z,311.93
2022-11-24T05:40:40.473Z,168.23
2022-11-24T05:44:41.299Z,206.77
2022-11-24T05:48:40.445Z,280.33
2022-11-24T05:52:40.371Z,156.17
2022-11-24T05:56:40.586Z,168.03
2022-11-24T06:00:40.597Z,150.5
2022-11-24T06:04:40.507Z,146.1
2022-11-24T06:08:39.782Z,164.97
2022-11-24T06:12:40.303Z,141
2022-11-24T06:16:40.728Z,164.63
2022-11-24T06:20:42.132Z,159.7
2022-11-24T06:24:40.593Z,137.47
2022-11-24T06:28:40.577Z,135.37
2022-11-24T06:32:42.579Z,109.27
2022-11-24T06:36:40.512Z,147.13
2022-11-24T06:40:40.515Z,120.87
2022-11-24T06:44:40.456Z,170
2022-11-24T06:48:40.648Z,122.7
2022-11-24T06:52:40.469Z,129.1
2022-11-24T06:56:40.530Z,138.03
2022-11-24T07:00:40.705Z,139.47
2022-11-24T07:04:40.544Z,109.93
2022-11-24T07:08:40.595Z,126.43
2022-11-24T07:12:40.342Z,133.53
2022-11-24T07:16:40.745Z,105.57
2022-11-24T07:20:40.412Z,126.57
2022-11-24T07:24:40.465Z,119.97
2022-11-24T07:28:40.850Z,131.03
2022-11-24T07:32:41.220Z,128.23
2022-11-24T07:36:39.883Z,125.3
2022-11-24T07:40:39.365Z,125.6
2022-11-24T07:44:40.479Z,113.3
2022-11-24T07:48:39.661Z,128.67
2022-11-24T07:52:40.557Z,109.47
2022-11-24T07:56:40.404Z,102.73
2022-11-24T08:00:40.610Z,92.47
2022-11-24T08:04:40.325Z,115.23
2022-11-24T08:08:40.466Z,103.9
2022-11-24T08:12:41.138Z,115.5
2022-11-24T08:16:40.471Z,101.87
2022-11-24T08:20:40.484Z,118.27
2022-11-24T08:24:40.451Z,106.1
2022-11-24T08:28:40.538Z,110.43
2022-11-24T08:32:41.186Z,124.17
2022-11-24T08:36:40.478Z,102.57
2022-11-24T08:40:40.575Z,101.57
2022-11-24T08:44:40.440Z,100.87
2022-11-24T08:48:40.494Z,99.53
2022-11-24T08:52:40.512Z,90.13
2022-11-24T08:56:40.514Z,95.53
2022-11-24T09:00:40.957Z,94.9
2022-11-24T09:04:40.506Z,87.37
2022-11-24T09:08:40.510Z,95.2
2022-11-24T09:12:40.638Z,82.97
2022-11-24T09:16:41.122Z,77.3
2022-11-24T09:20:40.676Z,86.1
2022-11-24T09:24:40.506Z,77.1
2022-11-24T09:28:40.503Z,66.77
2022-11-24T09:32:40.727Z,54.67
2022-11-24T09:36:40.516Z,61.77
2022-11-24T09:40:40.579Z,45.5
2022-11-24T09:44:40.483Z,39.7
2022-11-24T09:48:40.665Z,40.2
2022-11-24T09:52:40.845Z,38.63
2022-11-24T09:56:40.542Z,35.03
2022-11-24T10:00:40.802Z,33.1
2022-11-24T10:04:40.775Z,31.43
2022-11-24T10:08:40.575Z,38.43
2022-11-24T10:12:40.390Z,31.77
2022-11-24T10:16:40.263Z,31.53
2022-11-24T10:20:40.557Z,28
2022-11-24T10:24:40.690Z,28.3
2022-11-24T10:28:40.607Z,32.1
2022-11-24T10:32:40.587Z,27.7
2022-11-24T10:36:39.556Z,28.13
2022-11-24T10:40:56.409Z,28.03
2022-11-24T10:44:40.507Z,28.93
2022-11-24T10:48:40.761Z,24.73
2022-11-24T10:52:40.347Z,25.45
2022-11-24T10:56:40.953Z,28.85
2022-11-24T11:00:40.646Z,30.5
2022-11-24T11:04:40.609Z,28.12
2022-11-24T11:08:40.513Z,31.48
2022-11-24T11:12:44.365Z,25.67
2022-11-24T11:16:40.057Z,23.15
2022-11-24T11:20:40.695Z,25.37
2022-11-24T11:24:40.584Z,22.62
2022-11-24T11:28:41.146Z,24.7
2022-11-24T11:36:41.321Z,21.25
2022-11-24T11:40:40.969Z,22.83
2022-11-24T11:44:40.559Z,25.25
2022-11-24T11:48:43.718Z,22.42
2022-11-24T11:52:40.868Z,21.98
2022-11-24T11:56:40.498Z,18.48
2022-11-24T12:00:40.699Z,16.15
2022-11-24T12:04:40.682Z,23.02
2022-11-24T12:09:11.475Z,25.05
2022-11-24T12:12:40.767Z,30.37
2022-11-24T12:16:40.638Z,26.12
2022-11-24T12:20:40.502Z,27.13
2022-11-24T12:24:39.777Z,27.65
2022-11-24T12:28:40.478Z,23.7
2022-11-24T12:32:40.769Z,27.27
2022-11-24T12:36:40.257Z,29.03
2022-11-24T12:40:46.451Z,29.58
2022-11-24T12:44:40.308Z,40.42
2022-11-24T12:48:40.564Z,25.08
2022-11-24T12:52:40.464Z,21.85
2022-11-24T12:56:40.540Z,29.45
2022-11-24T13:00:40.621Z,25.75
2022-11-24T13:04:40.537Z,23.75
2022-11-24T13:08:40.541Z,26.92
2022-11-24T13:12:40.494Z,27.33
2022-11-24T13:16:53.497Z,25.33
2022-11-24T13:20:40.541Z,27.8
2022-11-24T13:24:40.512Z,25.08
2022-11-24T13:29:01.397Z,22.83
2022-11-24T13:32:40.380Z,27.5
2022-11-24T13:36:40.529Z,22.9
2022-11-24T13:40:45.844Z,22.27
2022-11-24T13:44:40.435Z,23.35
2022-11-24T13:48:40.238Z,23.45
2022-11-24T13:52:40.991Z,22.08
2022-11-24T13:56:39.779Z,23.62
2022-11-24T14:00:40.749Z,27.73
2022-11-24T14:04:40.449Z,20.7
2022-11-24T14:08:40.496Z,26.17
2022-11-24T14:12:40.427Z,24.87
2022-11-24T14:16:40.624Z,22.5
2022-11-24T14:20:40.498Z,23.02
2022-11-24T14:24:41.822Z,23.35
2022-11-24T14:28:40.823Z,33.85
2022-11-24T14:32:40.672Z,23.9
2022-11-24T14:36:40.321Z,23.85
2022-11-24T14:40:40.557Z,21.53
2022-11-24T14:44:40.528Z,22.3
2022-11-24T14:48:40.563Z,24.13
2022-11-24T14:52:40.456Z,22.63
2022-11-24T14:56:40.567Z,26.5
2022-11-24T15:00:40.827Z,22
2022-11-24T15:05:02.881Z,23.98
2022-11-24T15:08:40.429Z,26.5
2022-11-24T15:12:40.633Z,26.27
2022-11-24T15:16:40.605Z,22.02
2022-11-24T15:20:40.311Z,23.85
2022-11-24T15:24:40.474Z,21.87
2022-11-24T15:28:40.541Z,20.73
2022-11-24T15:32:40.686Z,28.12
2022-11-24T15:36:40.485Z,25.1
2022-11-24T15:40:40.650Z,25.7
2022-11-24T15:44:40.951Z,27.57
2022-11-24T15:48:39.847Z,26.57
2022-11-24T15:52:40.836Z,25.97
2022-11-24T15:56:40.647Z,28.77
2022-11-24T16:00:40.680Z,25.4
2022-11-24T16:04:41.077Z,23.27
2022-11-24T16:08:40.440Z,35.3
2022-11-24T16:12:40.445Z,27.77
2022-11-24T16:16:40.624Z,36.77
2022-11-24T16:20:41.021Z,26.77
2022-11-24T16:24:40.611Z,32.33
2022-11-24T16:28:40.700Z,37.47
2022-11-24T16:32:40.515Z,31.83
2022-11-24T16:36:40.411Z,29.33
2022-11-24T16:40:40.372Z,33.65
2022-11-24T16:44:40.449Z,32.33
2022-11-24T16:48:40.474Z,33.63
2022-11-24T16:52:40.535Z,31.27
2022-11-24T16:56:40.300Z,30.87
2022-11-24T17:00:40.838Z,29.48
2022-11-24T17:04:40.522Z,31.6
2022-11-24T17:08:40.558Z,38.27
2022-11-24T17:12:40.515Z,39.25
2022-11-24T17:16:41.162Z,32.3
2022-11-24T17:20:41.207Z,35.3
2022-11-24T17:24:40.553Z,37.9
2022-11-24T17:28:40.440Z,38.77
2022-11-24T17:32:40.574Z,35.8
2022-11-24T17:36:40.185Z,42.33
2022-11-24T17:40:41.228Z,47.13
2022-11-24T17:44:40.564Z,47.33
2022-11-24T17:48:40.422Z,43.17
2022-11-24T17:52:40.502Z,39.73
2022-11-24T17:56:40.529Z,37.93
2022-11-24T18:00:40.822Z,53.03
2022-11-24T18:04:40.240Z,60.5
2022-11-24T18:08:40.526Z,53.47
2022-11-24T18:12:40.719Z,37.7
2022-11-24T18:16:40.575Z,40.17
2022-11-24T18:20:40.473Z,38.8
2022-11-24T18:24:40.737Z,40
2022-11-24T18:28:40.679Z,39.9
2022-11-24T18:32:40.848Z,32
2022-11-24T18:36:41.156Z,35.33
2022-11-24T18:40:40.534Z,39.07
2022-11-24T18:44:40.805Z,43.93
2022-11-24T18:48:40.662Z,45.53
2022-11-24T18:52:40.419Z,40.13
2022-11-24T18:56:40.478Z,48.2
2022-11-24T19:00:41.253Z,41.9
2022-11-24T19:04:40.522Z,39.93
2022-11-24T19:08:40.445Z,40.7
2022-11-24T19:12:41.155Z,38.03
2022-11-24T19:16:40.492Z,39.07
2022-11-24T19:20:40.579Z,39.13
2022-11-24T19:24:41.066Z,41.03
2022-11-24T19:28:40.492Z,40.87
2022-11-24T19:32:40.658Z,38.77
2022-11-24T19:36:40.653Z,50.83
2022-11-24T19:40:40.557Z,42.3
2022-11-24T19:44:40.450Z,45.07
2022-11-24T19:48:40.323Z,46.9
2022-11-24T19:52:40.777Z,39.7
2022-11-24T19:56:40.576Z,38.77
2022-11-24T20:00:40.632Z,43.4
2022-11-24T20:04:40.529Z,44.2
2022-11-24T20:08:40.436Z,54.33
2022-11-24T20:12:40.509Z,49.07
2022-11-24T20:16:40.626Z,40.5
2022-11-24T20:20:39.972Z,43.47
2022-11-24T20:24:41.079Z,52.33
2022-11-24T20:28:40.507Z,48.4
2022-11-24T20:32:40.896Z,46.87
2022-11-24T20:36:40.608Z,50.03
2022-11-24T20:40:40.705Z,50.63
2022-11-24T20:44:40.439Z,54.53
2022-11-24T20:48:40.478Z,43.17
2022-11-24T20:52:40.429Z,46.9
2022-11-24T20:56:40.553Z,49.87
2022-11-24T21:00:40.491Z,51.57
2022-11-24T21:04:40.420Z,47.93
2022-11-24T21:08:40.488Z,46.4
2022-11-24T21:12:40.886Z,42.4
2022-11-24T21:16:41.317Z,45.77
2022-11-24T21:20:40.875Z,50.63
2022-11-24T21:24:40.456Z,46.57
2022-11-24T21:28:40.806Z,39.13
2022-11-24T21:32:40.559Z,44.1
2022-11-24T21:36:40.409Z,46.03
2022-11-24T21:40:41.442Z,42.47
2022-11-24T21:44:40.601Z,44.53
2022-11-24T21:48:41.034Z,47.13
2022-11-24T21:52:39.331Z,45.53
2022-11-24T21:56:40.710Z,48.77
2022-11-24T22:00:40.594Z,45.2
2022-11-24T22:04:40.527Z,54.33
2022-11-24T22:08:40.675Z,54.6
2022-11-24T22:12:40.541Z,49.5
2022-11-24T22:16:40.347Z,45.43
2022-11-24T22:20:40.545Z,49.67
2022-11-24T22:24:40.991Z,52.03
2022-11-24T22:28:40.699Z,54.83
2022-11-24T22:32:40.551Z,45.53
2022-11-24T22:36:40.413Z,39.83
2022-11-24T22:40:40.857Z,42.33
2022-11-24T22:44:40.511Z,41.07
2022-11-24T22:48:40.528Z,43.8
2022-11-24T22:52:40.523Z,36.07
2022-11-24T22:56:40.484Z,48.5
2022-11-24T23:00:40.170Z,43.57
2022-11-24T23:04:41.180Z,41.13
2022-11-24T23:08:40.651Z,45.27
2022-11-24T23:12:40.777Z,45.23
2022-11-24T23:16:40.629Z,47.1
2022-11-24T23:20:40.642Z,42.5
2022-11-24T23:24:40.558Z,59.27
2022-11-24T23:28:40.703Z,34.83
2022-11-24T23:32:40.512Z,42.13
2022-11-24T23:36:40.438Z,41.63
2022-11-24T23:40:40.356Z,40.9
2022-11-24T23:44:40.440Z,47.17
2022-11-24T23:48:40.487Z,35
2022-11-24T23:52:40.428Z,41.93
2022-11-24T23:56:39.871Z,48.63
